Time;durP1;ratioP1;P1;durP2;ratioP2;P2;SDS_P1;SDS_P2;PMS_P1;PMS_P2;Temp;Humidity;BMP_temperature;BMP_pressure;BME280_temperature;BME280_humidity;BME280_pressure;Samples;Min_cycle;Max_cycle;Signal;HPM_P1;HPM_P2
2023/05/21 15:00:49;;;;;;;13.38;11.98;;;;;;;31.00;33.81;100849.66;770780;22;1988619;-81
2023/05/21 15:01:10;;;;;;;14.07;12.63;;;;;;;30.96;33.84;100847.19;852710;23;904;-82
2023/05/21 15:01:31;;;;;;;14.18;12.68;;;;;;;30.93;34.18;100854.50;848581;23;1286;-81
2023/05/21 15:02:08;;;;;;;13.93;12.45;;;;;;;30.82;34.13;100840.78;836775;23;1313;-82
2023/05/21 15:02:28;;;;;;;13.68;12.18;;;;;;;30.85;34.01;100840.59;840585;23;1267;-81
2023/05/21 15:02:49;;;;;;;14.93;12.60;;;;;;;30.84;33.97;100833.47;844855;23;1087;-82
2023/05/21 15:03:11;;;;;;;17.03;12.57;;;;;;;30.89;34.29;100850.25;846125;23;1054;-82
2023/05/21 15:03:32;;;;;;;17.02;12.80;;;;;;;30.87;34.47;100838.69;844957;23;1432;-82
2023/05/21 15:03:54;;;;;;;16.80;12.60;;;;;;;30.89;34.35;100841.28;848971;23;958;-82
2023/05/21 15:04:15;;;;;;;13.98;12.45;;;;;;;30.97;34.30;100832.78;851773;23;1238;-82
2023/05/21 15:04:35;;;;;;;15.73;12.37;;;;;;;31.06;33.69;100837.63;846345;23;992;-82
2023/05/21 15:04:57;;;;;;;15.23;12.40;;;;;;;31.10;34.00;100849.97;844770;23;1968;-82
2023/05/21 15:05:18;;;;;;;14.38;12.15;;;;;;;31.03;34.16;100830.59;836676;23;1349;-83
2023/05/21 15:05:38;;;;;;;15.63;12.50;;;;;;;30.99;34.30;100831.72;840758;23;1251;-81
2023/05/21 15:05:59;;;;;;;16.07;12.97;;;;;;;30.98;33.67;100835.38;840797;23;1189;-82
2023/05/21 15:06:20;;;;;;;16.52;13.35;;;;;;;30.93;34.24;100835.66;845940;23;1256;-81
2023/05/21 15:06:41;;;;;;;14.30;12.80;;;;;;;30.89;33.94;100836.78;844697;23;1290;-83
2023/05/21 15:07:02;;;;;;;14.32;12.70;;;;;;;30.83;34.23;100837.13;845666;23;989;-82
2023/05/21 15:07:22;;;;;;;15.27;13.05;;;;;;;30.82;34.30;100840.78;834667;23;1176;-81
2023/05/21 15:07:43;;;;;;;15.77;13.30;;;;;;;30.86;34.23;100841.50;839511;23;1121;-81
2023/05/21 15:08:04;;;;;;;15.60;13.75;;;;;;;30.77;34.44;100829.41;842639;23;1142;-81
2023/05/21 15:08:25;;;;;;;15.52;13.88;;;;;;;30.80;34.40;100848.09;840699;23;1236;-81
2023/05/21 15:08:45;;;;;;;15.63;14.02;;;;;;;30.77;34.45;100840.16;838205;23;1106;-81
2023/05/21 15:09:24;;;;;;;15.60;14.00;;;;;;;30.76;34.62;100839.31;845546;23;1120;-81
2023/05/21 15:09:46;;;;;;;16.15;13.43;;;;;;;30.75;34.33;100840.25;848109;23;1150;-81
2023/05/21 15:10:07;;;;;;;16.00;13.13;;;;;;;30.79;34.70;100835.56;845856;23;1021;-83
2023/05/21 15:10:28;;;;;;;16.52;13.48;;;;;;;30.79;34.92;100824.78;840356;23;1257;-84
2023/05/21 15:10:48;;;;;;;16.63;13.55;;;;;;;30.91;34.70;100839.38;841996;23;912;-83
2023/05/21 15:11:09;;;;;;;16.43;13.43;;;;;;;31.01;34.28;100839.72;840747;23;1385;-83
2023/05/21 15:11:30;;;;;;;16.00;13.18;;;;;;;31.06;34.36;100832.25;840734;23;1374;-83
2023/05/21 15:11:52;;;;;;;15.80;13.25;;;;;;;31.18;34.22;100836.94;840152;23;1343;-83
2023/05/21 15:12:12;;;;;;;15.82;13.40;;;;;;;31.24;34.10;100830.34;838870;23;941;-84
2023/05/21 15:12:33;;;;;;;15.47;13.60;;;;;;;31.35;33.79;100832.38;842620;23;1020;-84
2023/05/21 15:12:53;;;;;;;14.95;13.27;;;;;;;31.40;33.78;100824.91;842258;23;1062;-82
2023/05/21 15:13:14;;;;;;;15.30;13.10;;;;;;;31.45;33.94;100830.91;845179;23;1163;-81
2023/05/21 15:13:35;;;;;;;14.75;13.15;;;;;;;31.53;34.04;100829.56;842498;23;964;-80
2023/05/21 15:13:55;;;;;;;15.30;13.10;;;;;;;31.57;33.67;100831.09;840531;23;1065;-82
2023/05/21 15:14:16;;;;;;;14.53;12.93;;;;;;;31.57;34.03;100831.09;842433;23;876;-82
2023/05/21 15:14:37;;;;;;;15.27;12.77;;;;;;;31.57;33.66;100834.69;839712;23;1379;-81
2023/05/21 15:14:57;;;;;;;14.87;12.73;;;;;;;31.61;33.56;100836.22;837100;23;1007;-82
2023/05/21 15:15:19;;;;;;;17.20;12.88;;;;;;;31.60;33.86;100830.94;846269;23;936;-82
2023/05/21 15:15:40;;;;;;;16.30;12.77;;;;;;;31.68;33.61;100835.88;839691;23;1196;-81
2023/05/21 15:16:01;;;;;;;15.13;12.40;;;;;;;31.66;33.54;100819.75;844413;23;1285;-84
2023/05/21 15:16:21;;;;;;;13.33;11.93;;;;;;;31.74;33.77;100833.66;846100;23;989;-81
2023/05/21 15:16:42;;;;;;;13.38;11.77;;;;;;;31.83;33.94;100832.25;849046;23;1046;-81
2023/05/21 15:17:03;;;;;;;14.03;11.90;;;;;;;31.84;33.57;100839.38;844786;23;1317;-81
2023/05/21 15:17:23;;;;;;;14.68;12.23;;;;;;;31.82;33.85;100832.34;841529;23;1206;-81
2023/05/21 15:17:44;;;;;;;14.07;12.35;;;;;;;31.80;33.80;100829.75;846389;23;1018;-81
2023/05/21 15:18:05;;;;;;;13.73;12.30;;;;;;;31.80;33.57;100826.16;854353;23;1008;-81
2023/05/21 15:19:12;;;;;;;13.43;11.73;;;;;;;31.90;33.37;100827.31;847985;23;1248;-81
2023/05/21 15:19:34;;;;;;;13.25;11.95;;;;;;;31.88;33.52;100826.56;842224;23;1294;-81
2023/05/21 15:19:54;;;;;;;13.48;12.07;;;;;;;31.91;33.25;100826.41;838889;23;1294;-81
2023/05/21 15:20:16;;;;;;;13.88;12.38;;;;;;;31.91;33.16;100825.50;840712;23;1212;-81
2023/05/21 15:20:37;;;;;;;14.02;12.52;;;;;;;31.90;33.59;100829.19;836947;23;1462;-81
2023/05/21 15:20:58;;;;;;;13.20;11.90;;;;;;;31.82;33.53;100833.22;836374;23;1062;-81
2023/05/21 15:21:18;;;;;;;12.82;11.52;;;;;;;31.77;34.07;100827.22;838612;23;933;-81
2023/05/21 15:21:39;;;;;;;12.63;11.33;;;;;;;31.71;34.06;100832.97;840157;23;1188;-81
2023/05/21 15:22:00;;;;;;;12.80;11.30;;;;;;;31.56;34.14;100823.97;842383;23;1099;-81
2023/05/21 15:22:21;;;;;;;12.87;11.57;;;;;;;31.49;33.96;100830.69;840448;23;1187;-81
2023/05/21 15:22:42;;;;;;;12.77;11.48;;;;;;;31.42;34.10;100820.28;842159;23;829;-82
2023/05/21 15:23:03;;;;;;;12.70;11.40;;;;;;;31.35;34.24;100818.91;844753;23;1327;-82
2023/05/21 15:23:24;;;;;;;12.73;11.40;;;;;;;31.30;34.01;100818.31;844626;23;1172;-84
2023/05/21 15:23:48;;;;;;;12.90;11.50;;;;;;;31.23;33.88;100816.94;846130;23;1163;-82
2023/05/21 15:24:10;;;;;;;13.15;11.75;;;;;;;31.15;34.38;100818.28;840636;23;917;-82
2023/05/21 15:24:30;;;;;;;12.90;11.60;;;;;;;31.06;34.35;100821.47;840755;23;1339;-82
2023/05/21 15:24:51;;;;;;;12.70;11.40;;;;;;;31.03;34.43;100821.63;846149;23;1911;-82
2023/05/21 15:25:12;;;;;;;12.43;11.13;;;;;;;30.93;34.53;100815.94;840445;23;1154;-84
2023/05/21 15:25:32;;;;;;;13.50;11.10;;;;;;;30.88;34.92;100824.28;840589;23;1179;-82
2023/05/21 15:25:53;;;;;;;14.50;11.43;;;;;;;30.78;35.06;100823.94;836970;23;1273;-81
2023/05/21 15:26:24;;;;;;;13.47;11.27;;;;;;;30.75;34.87;100834.88;842385;23;744;-82
2023/05/21 15:26:45;;;;;;;12.77;11.48;;;;;;;30.70;35.02;100831.59;841784;23;886;-82
2023/05/21 15:27:05;;;;;;;12.90;11.60;;;;;;;30.68;34.99;100817.34;848861;23;900;-81
2023/05/21 15:27:26;;;;;;;12.70;11.40;;;;;;;30.72;34.99;100835.06;846010;23;1061;-81
2023/05/21 15:27:47;;;;;;;13.00;11.60;;;;;;;30.70;35.14;100830.69;844897;23;1439;-81
2023/05/21 15:28:07;;;;;;;13.50;11.50;;;;;;;30.69;35.26;100823.59;845331;23;1137;-81
2023/05/21 15:28:30;;;;;;;13.20;11.40;;;;;;;30.75;35.06;100828.63;836686;23;1251;-82
2023/05/21 15:28:50;;;;;;;13.13;11.60;;;;;;;30.74;34.96;100816.97;841081;23;1238;-81
2023/05/21 15:29:11;;;;;;;13.02;11.73;;;;;;;30.82;34.84;100824.63;845253;23;1265;-81
2023/05/21 15:29:32;;;;;;;13.20;11.77;;;;;;;30.89;35.04;100828.72;844679;23;1167;-81
2023/05/21 15:29:52;;;;;;;12.77;11.33;;;;;;;30.94;35.14;100820.38;841639;23;1071;-82
2023/05/21 15:30:13;;;;;;;14.10;11.65;;;;;;;30.96;34.75;100818.44;842495;23;966;-81
2023/05/21 15:30:34;;;;;;;14.80;11.85;;;;;;;31.01;34.75;100820.88;840512;23;1290;-81
2023/05/21 15:30:54;;;;;;;15.00;11.80;;;;;;;31.06;34.99;100818.78;846314;23;927;-81
2023/05/21 15:31:15;;;;;;;13.60;11.20;;;;;;;31.11;34.79;100832.84;848203;23;1310;-81
2023/05/21 15:31:38;;;;;;;12.30;10.90;;;;;;;31.17;34.86;100834.34;844601;23;1015;-81
2023/05/21 15:31:59;;;;;;;11.75;10.55;;;;;;;31.21;34.10;100829.66;846014;23;1042;-81
2023/05/21 15:32:20;;;;;;;12.07;10.85;;;;;;;31.22;34.41;100823.31;842214;23;1130;-81
2023/05/21 15:32:41;;;;;;;12.23;11.02;;;;;;;31.31;34.24;100830.84;837925;23;1039;-84
2023/05/21 15:33:01;;;;;;;12.40;11.10;;;;;;;31.32;34.32;100827.19;842952;23;1158;-81
2023/05/21 15:33:22;;;;;;;12.80;10.90;;;;;;;31.39;34.46;100822.28;843946;23;1282;-82
2023/05/21 15:33:43;;;;;;;13.50;10.43;;;;;;;31.41;34.62;100821.25;840790;23;1244;-83
2023/05/21 15:34:03;;;;;;;13.07;10.57;;;;;;;31.44;34.47;100826.47;836543;23;1128;-82
2023/05/21 15:34:24;;;;;;;13.17;10.60;;;;;;;31.49;34.20;100818.09;842205;23;1186;-83
2023/05/21 15:34:45;;;;;;;12.82;10.88;;;;;;;31.59;34.15;100834.56;836699;23;1162;-84
2023/05/21 15:35:06;;;;;;;12.60;10.98;;;;;;;31.52;34.19;100815.19;840932;23;1349;-82
2023/05/21 15:35:27;;;;;;;12.10;10.80;;;;;;;31.53;34.19;100824.16;840522;23;1179;-81
2023/05/21 15:35:47;;;;;;;11.95;10.75;;;;;;;31.54;34.48;100828.59;840596;23;1111;-82
2023/05/21 15:36:08;;;;;;;11.70;10.50;;;;;;;31.49;34.35;100830.69;838244;23;865;-81
2023/05/21 15:36:29;;;;;;;11.68;10.48;;;;;;;31.48;34.41;100835.25;839229;23;1058;-81
2023/05/21 15:36:50;;;;;;;11.48;10.27;;;;;;;31.39;34.48;100825.88;846776;23;1224;-82
2023/05/21 15:37:14;;;;;;;11.60;10.40;;;;;;;31.36;34.58;100823.34;842632;23;876;-82
2023/05/21 15:37:34;;;;;;;12.05;10.77;;;;;;;31.31;34.38;100825.44;841124;23;1193;-81
2023/05/21 15:37:55;;;;;;;12.23;10.93;;;;;;;31.30;34.87;100829.97;842828;23;979;-82
2023/05/21 15:38:16;;;;;;;12.07;10.85;;;;;;;31.26;34.92;100822.16;844160;23;1298;-82
2023/05/21 15:38:36;;;;;;;12.63;11.23;;;;;;;31.21;34.99;100822.41;845301;23;1132;-82
2023/05/21 15:39:02;;;;;;;14.00;11.15;;;;;;;31.18;34.88;100836.09;846320;23;1114;-82
2023/05/21 15:39:23;;;;;;;14.32;11.40;;;;;;;31.01;34.87;100818.16;844831;23;1420;-82
2023/05/21 15:39:47;;;;;;;12.65;10.90;;;;;;;30.93;34.87;100821.31;844827;23;1288;-82
2023/05/21 15:40:08;;;;;;;12.50;11.00;;;;;;;30.89;35.39;100826.03;850396;23;956;-82
2023/05/21 15:40:30;;;;;;;12.68;10.90;;;;;;;30.83;35.22;100831.75;840392;23;1334;-81
2023/05/21 15:40:51;;;;;;;12.20;10.68;;;;;;;30.83;35.34;100834.44;842233;23;1099;-83
2023/05/21 15:41:21;;;;;;;12.03;10.73;;;;;;;30.75;35.22;100829.47;837424;23;1042;-83
2023/05/21 15:41:42;;;;;;;12.20;10.90;;;;;;;30.72;35.42;100824.28;842273;23;895;-83
2023/05/21 15:42:03;;;;;;;11.90;10.70;;;;;;;30.68;35.59;100817.34;840889;23;1382;-84
2023/05/21 15:42:23;;;;;;;12.00;10.80;;;;;;;30.74;35.43;100826.91;841035;23;1119;-83
2023/05/21 15:42:44;;;;;;;12.30;11.00;;;;;;;30.72;35.47;100823.41;842446;23;999;-82
2023/05/21 15:43:05;;;;;;;12.70;11.10;;;;;;;30.72;35.24;100826.09;845013;23;1163;-83
2023/05/21 15:43:25;;;;;;;12.47;10.93;;;;;;;30.69;35.03;100815.50;848892;23;1243;-83
2023/05/21 15:43:46;;;;;;;12.13;10.80;;;;;;;30.69;35.40;100820.88;844975;23;1251;-84
2023/05/21 15:44:07;;;;;;;12.60;11.10;;;;;;;30.61;35.06;100822.19;837364;23;1410;-83
2023/05/21 15:44:27;;;;;;;13.67;11.80;;;;;;;30.58;35.23;100821.50;838449;23;1052;-82
2023/05/21 15:44:48;;;;;;;13.40;11.65;;;;;;;30.58;35.33;100822.38;839734;23;1917;-82
2023/05/21 15:45:09;;;;;;;12.63;11.33;;;;;;;30.58;35.47;100822.38;840479;23;1134;-82
2023/05/21 15:45:30;;;;;;;11.98;10.77;;;;;;;30.60;35.77;100820.47;842972;23;977;-81
2023/05/21 15:45:50;;;;;;;11.97;10.77;;;;;;;30.57;35.51;100812.53;836973;23;1237;-83
2023/05/21 15:46:11;;;;;;;12.35;10.90;;;;;;;30.64;35.60;100822.03;841084;23;1137;-83
2023/05/21 15:46:32;;;;;;;12.18;10.85;;;;;;;30.59;35.39;100818.72;840391;23;1231;-84
2023/05/21 15:46:53;;;;;;;13.25;11.43;;;;;;;30.47;35.87;100809.47;838000;23;1071;-81
2023/05/21 15:47:14;;;;;;;14.40;11.40;;;;;;;30.48;35.58;100810.31;838604;23;1054;-82
2023/05/21 15:47:35;;;;;;;14.32;11.65;;;;;;;30.40;35.57;100820.66;838483;23;985;-82
2023/05/21 15:47:56;;;;;;;14.03;11.40;;;;;;;30.22;36.09;100813.53;839515;23;1071;-82
2023/05/21 15:48:21;;;;;;;12.00;10.80;;;;;;;30.28;36.29;100822.19;839450;23;922;-83
2023/05/21 15:48:42;;;;;;;11.48;10.38;;;;;;;30.29;36.29;100815.88;838703;23;1118;-82
2023/05/21 15:49:02;;;;;;;11.60;10.50;;;;;;;30.28;36.29;100819.50;840676;23;1126;-81
2023/05/21 15:49:23;;;;;;;12.03;10.83;;;;;;;30.27;36.35;100829.44;842405;23;965;-82
2023/05/21 15:49:44;;;;;;;12.52;11.23;;;;;;;30.27;36.49;100818.66;840060;23;1125;-82
2023/05/21 15:50:05;;;;;;;12.50;11.10;;;;;;;30.28;36.49;100825.78;842415;23;1047;-82
2023/05/21 15:50:25;;;;;;;12.90;11.60;;;;;;;30.24;36.55;100824.19;841679;23;1227;-82
2023/05/21 15:50:48;;;;;;;12.73;11.43;;;;;;;30.13;36.59;100815.84;842419;23;1033;-83
2023/05/21 15:51:09;;;;;;;12.60;11.40;;;;;;;30.10;36.64;100815.06;841308;23;1271;-82
2023/05/21 15:51:30;;;;;;;12.70;11.43;;;;;;;30.07;36.55;100817.06;841476;23;1084;-82
2023/05/21 15:51:51;;;;;;;12.73;11.48;;;;;;;30.06;37.02;100816.19;845099;23;998;-82
2023/05/21 15:52:12;;;;;;;12.38;11.18;;;;;;;30.04;36.58;100812.69;846890;23;904;-83
2023/05/21 15:52:32;;;;;;;11.93;10.73;;;;;;;30.00;36.82;100816.47;842438;23;884;-83
2023/05/21 15:52:53;;;;;;;12.77;11.07;;;;;;;29.97;36.90;100811.25;846798;23;1089;-82
2023/05/21 15:53:14;;;;;;;13.23;11.20;;;;;;;29.96;37.14;100807.69;837622;23;1115;-83
2023/05/21 15:53:34;;;;;;;13.03;10.90;;;;;;;29.98;36.98;100807.63;842696;23;996;-82
2023/05/21 15:53:55;;;;;;;12.70;10.82;;;;;;;30.08;36.93;100832.25;842462;23;1121;-83
2023/05/21 15:54:16;;;;;;;12.80;11.10;;;;;;;30.06;36.85;100816.19;845290;23;1342;-83
2023/05/21 15:54:37;;;;;;;12.50;11.20;;;;;;;30.12;36.69;100816.81;845221;23;1240;-84
2023/05/21 15:54:58;;;;;;;12.77;11.48;;;;;;;30.13;36.87;100818.53;840991;23;1354;-83
2023/05/21 15:55:19;;;;;;;12.73;11.43;;;;;;;30.13;36.76;100815.84;846831;23;983;-83
2023/05/21 15:55:40;;;;;;;12.55;11.25;;;;;;;30.08;36.64;100814.28;840649;23;1263;-84
2023/05/21 15:56:02;;;;;;;11.93;10.73;;;;;;;30.05;36.77;100811.75;842522;23;1011;-82
2023/05/21 15:56:22;;;;;;;11.95;10.85;;;;;;;30.04;36.61;100811.81;840510;23;1196;-82
2023/05/21 15:56:46;;;;;;;12.40;11.20;;;;;;;29.99;36.94;100817.41;846344;23;720;-83
2023/05/21 15:57:07;;;;;;;13.18;11.45;;;;;;;29.94;36.80;100812.28;845959;23;921;-83
2023/05/21 15:57:28;;;;;;;14.30;11.60;;;;;;;29.94;36.81;100811.44;844585;23;1133;-83
2023/05/21 15:57:49;;;;;;;13.70;11.38;;;;;;;29.98;36.83;100810.31;844686;23;1351;-82
2023/05/21 15:58:09;;;;;;;12.45;11.15;;;;;;;29.94;36.98;100803.38;840532;23;1152;-83
2023/05/21 15:58:30;;;;;;;11.90;10.70;;;;;;;29.95;36.93;100805.09;839215;23;1124;-83
2023/05/21 15:58:51;;;;;;;11.88;10.68;;;;;;;29.95;37.14;100819.41;840338;23;1038;-82
2023/05/21 15:59:15;;;;;;;12.17;10.87;;;;;;;29.94;37.07;100816.81;840764;23;1199;-83
2023/05/21 15:59:35;;;;;;;12.20;10.90;;;;;;;29.93;37.17;100809.69;842404;23;1268;-83
2023/05/21 15:59:57;;;;;;;12.67;11.10;;;;;;;29.94;36.69;100806.06;841893;23;1297;-83
2023/05/21 16:00:18;;;;;;;12.15;10.85;;;;;;;29.93;36.94;100805.19;841747;23;1172;-82
2023/05/21 16:00:39;;;;;;;12.38;11.07;;;;;;;29.94;37.13;100806.06;841721;23;1297;-83
2023/05/21 16:01:00;;;;;;;12.57;11.38;;;;;;;30.00;37.00;100815.63;838780;23;1164;-84
2023/05/21 16:01:21;;;;;;;12.93;11.63;;;;;;;29.97;36.63;100816.63;841129;23;991;-83
2023/05/21 16:01:42;;;;;;;13.98;11.40;;;;;;;29.99;37.12;100816.56;843886;23;1098;-83
2023/05/21 16:02:02;;;;;;;14.57;11.13;;;;;;;29.95;36.78;100813.16;847608;23;1180;-83
2023/05/21 16:02:23;;;;;;;14.63;11.00;;;;;;;29.96;37.25;100804.16;847824;23;1172;-82
2023/05/21 16:02:43;;;;;;;12.77;11.23;;;;;;;29.93;37.07;100810.56;846272;23;1223;-83
2023/05/21 16:03:21;;;;;;;12.52;11.23;;;;;;;29.86;36.95;100803.75;846491;23;1101;-82
2023/05/21 16:03:42;;;;;;;12.38;11.05;;;;;;;29.83;36.89;100804.78;842693;23;1305;-83
2023/05/21 16:04:03;;;;;;;12.50;11.20;;;;;;;29.79;37.04;100803.22;842028;23;1215;-82
2023/05/21 16:04:23;;;;;;;12.60;11.30;;;;;;;29.84;36.94;100816.44;838115;23;1126;-81
2023/05/21 16:04:44;;;;;;;12.63;11.40;;;;;;;29.84;37.55;100797.59;841310;23;1882;-82
2023/05/21 16:05:05;;;;;;;12.20;11.00;;;;;;;29.89;37.40;100814.38;846162;23;1045;-82
2023/05/21 16:05:26;;;;;;;11.90;10.70;;;;;;;29.91;36.99;100807.09;847652;23;1114;-82
2023/05/21 16:05:46;;;;;;;12.02;10.75;;;;;;;29.92;36.97;100802.56;838199;23;1188;-84
2023/05/21 16:06:09;;;;;;;12.10;10.80;;;;;;;30.00;37.03;100810.22;848319;23;1016;-83
2023/05/21 16:06:30;;;;;;;12.25;10.93;;;;;;;30.06;37.38;100816.19;846177;23;962;-82
2023/05/21 16:06:51;;;;;;;12.60;11.10;;;;;;;30.06;37.42;100808.09;842491;23;1273;-83
2023/05/21 16:07:11;;;;;;;12.63;11.07;;;;;;;30.08;37.10;100808.91;844023;23;1001;-82
2023/05/21 16:07:32;;;;;;;13.52;11.50;;;;;;;30.10;36.87;100816.88;841162;23;1181;-83
2023/05/21 16:07:53;;;;;;;12.70;11.30;;;;;;;30.05;37.19;100814.44;848945;23;1028;-82
2023/05/21 16:08:13;;;;;;;12.80;11.43;;;;;;;30.06;37.11;100810.78;850798;23;936;-82
2023/05/21 16:08:34;;;;;;;12.30;11.00;;;;;;;29.97;37.27;100812.16;848356;23;1172;-81
2023/05/21 16:08:54;;;;;;;12.30;11.00;;;;;;;29.96;37.06;100804.16;854806;23;1066;-83
2023/05/21 16:09:16;;;;;;;12.35;11.05;;;;;;;29.99;37.17;100809.34;843944;23;1172;-81
2023/05/21 16:09:37;;;;;;;12.40;11.10;;;;;;;29.97;37.37;100808.56;842199;23;906;-81
2023/05/21 16:09:57;;;;;;;12.23;11.02;;;;;;;30.01;37.04;100812.84;837109;23;1203;-82
2023/05/21 16:10:18;;;;;;;12.30;11.10;;;;;;;30.03;36.79;100810.09;838201;23;938;-83
2023/05/21 16:10:39;;;;;;;12.48;11.18;;;;;;;30.05;36.70;100817.13;836833;23;1278;-82
2023/05/21 16:10:59;;;;;;;15.13;11.20;;;;;;;30.10;37.08;100809.69;837077;23;1217;-82
2023/05/21 16:11:21;;;;;;;15.00;11.10;;;;;;;30.14;37.21;100820.28;836868;23;1235;-82
2023/05/21 16:11:44;;;;;;;15.68;11.65;;;;;;;30.15;36.84;100808.56;840212;23;1224;-81
2023/05/21 16:12:05;;;;;;;13.32;11.90;;;;;;;30.12;36.79;100803.34;842260;23;886;-82
2023/05/21 16:12:26;;;;;;;13.73;11.80;;;;;;;30.17;37.14;100803.97;840815;23;1335;-81
2023/05/21 16:12:47;;;;;;;12.48;11.05;;;;;;;30.18;36.88;100811.09;836494;23;1245;-82
2023/05/21 16:13:08;;;;;;;12.35;11.00;;;;;;;30.27;36.95;100809.69;840360;23;1230;-83
2023/05/21 16:13:28;;;;;;;12.10;10.80;;;;;;;30.32;36.67;100800.44;840502;23;1212;-84
2023/05/21 16:13:49;;;;;;;12.85;11.50;;;;;;;30.37;36.64;100809.09;840512;23;1277;-82
2023/05/21 16:14:10;;;;;;;12.77;11.47;;;;;;;30.48;36.71;100815.72;840284;23;1162;-82
2023/05/21 16:14:31;;;;;;;12.95;11.65;;;;;;;30.47;36.80;100814.84;841879;23;957;-82
2023/05/21 16:14:52;;;;;;;12.27;10.98;;;;;;;30.36;37.07;100804.69;845614;23;854;-82
2023/05/21 16:15:12;;;;;;;11.90;10.53;;;;;;;30.32;36.69;100808.53;840329;23;1088;-83
2023/05/21 16:15:33;;;;;;;13.05;10.55;;;;;;;30.26;36.91;100803.47;844112;23;1598;-82
2023/05/21 16:15:57;;;;;;;12.30;10.82;;;;;;;30.21;36.76;100802.84;848561;23;1132;-82
2023/05/21 16:16:18;;;;;;;12.52;10.98;;;;;;;30.23;36.97;100812.56;840194;23;1201;-82
2023/05/21 16:16:39;;;;;;;11.73;10.53;;;;;;;30.17;37.30;100802.13;840444;23;1372;-82
2023/05/21 16:16:59;;;;;;;12.15;10.85;;;;;;;30.20;37.40;100809.19;841280;23;1076;-82
2023/05/21 16:17:20;;;;;;;12.00;10.80;;;;;;;30.15;37.31;100797.78;840293;23;1213;-82
2023/05/21 16:17:41;;;;;;;12.70;11.40;;;;;;;30.20;37.30;100804.69;840239;23;1259;-82
2023/05/21 16:18:01;;;;;;;12.90;11.50;;;;;;;30.25;37.56;100801.72;840371;23;1121;-83
2023/05/21 16:18:22;;;;;;;13.43;11.87;;;;;;;30.24;37.38;100810.72;840323;23;1189;-84
2023/05/21 16:18:43;;;;;;;14.20;12.02;;;;;;;30.23;37.28;100800.94;840543;23;1638;-83
2023/05/21 16:19:03;;;;;;;14.38;11.70;;;;;;;30.20;37.28;100806.50;844303;23;1354;-82
2023/05/21 16:19:24;;;;;;;14.87;12.03;;;;;;;30.20;37.12;100803.78;844286;23;1152;-82
2023/05/21 16:19:46;;;;;;;13.90;11.65;;;;;;;30.21;37.12;100803.72;844660;23;1143;-82
2023/05/21 16:20:06;;;;;;;12.90;11.60;;;;;;;30.20;37.06;100802.00;844552;23;1466;-83
2023/05/21 16:20:29;;;;;;;12.68;11.38;;;;;;;30.23;37.44;100804.50;841828;23;981;-81
2023/05/21 16:20:50;;;;;;;12.75;11.43;;;;;;;30.21;37.29;100800.16;841448;23;964;-82
2023/05/21 16:21:11;;;;;;;12.60;11.30;;;;;;;30.25;37.33;100812.50;844197;23;1120;-82
2023/05/21 16:21:32;;;;;;;12.70;11.40;;;;;;;30.23;37.33;100803.63;845194;23;1131;-82
2023/05/21 16:21:53;;;;;;;12.40;11.20;;;;;;;30.26;37.42;100806.16;840217;23;1246;-82
2023/05/21 16:22:14;;;;;;;13.07;11.27;;;;;;;30.24;37.18;100802.66;845517;23;960;-82
2023/05/21 16:22:34;;;;;;;14.30;11.60;;;;;;;30.31;36.95;100803.22;843762;23;1120;-82
2023/05/21 16:22:55;;;;;;;15.65;12.10;;;;;;;30.34;37.23;100803.91;836142;23;1195;-81
2023/05/21 16:23:16;;;;;;;14.15;11.90;;;;;;;30.32;37.31;100796.88;841619;23;1077;-83
2023/05/21 16:23:37;;;;;;;13.23;11.63;;;;;;;30.37;37.18;100806.41;840150;23;1128;-82
2023/05/21 16:23:58;;;;;;;12.60;11.30;;;;;;;30.36;37.13;100804.69;839885;23;1349;-82
2023/05/21 16:24:19;;;;;;;12.70;11.40;;;;;;;30.37;37.36;100801.03;844269;23;1505;-82
2023/05/21 16:24:40;;;;;;;12.80;11.50;;;;;;;30.41;37.00;100808.97;840206;23;1901;-83
2023/05/21 16:25:01;;;;;;;12.90;11.50;;;;;;;30.41;37.38;100801.75;841621;23;1105;-82
2023/05/21 16:25:22;;;;;;;13.45;11.48;;;;;;;30.43;36.63;100801.66;841851;23;953;-82
2023/05/21 16:25:42;;;;;;;13.80;11.30;;;;;;;30.42;36.89;100794.53;843221;23;1224;-82
2023/05/21 16:26:10;;;;;;;14.73;11.90;;;;;;;30.48;37.16;100796.88;845422;23;1048;-82
2023/05/21 16:26:30;;;;;;;13.88;12.07;;;;;;;30.49;37.15;100795.94;845780;23;1355;-82
2023/05/21 16:26:51;;;;;;;12.40;11.13;;;;;;;30.43;36.99;100793.59;845109;23;960;-81
2023/05/21 16:27:12;;;;;;;11.90;10.70;;;;;;;30.43;36.96;100796.28;839896;23;1044;-82
2023/05/21 16:27:33;;;;;;;11.45;10.25;;;;;;;30.43;37.32;100793.59;836065;23;1135;-81
2023/05/21 16:27:54;;;;;;;12.20;10.90;;;;;;;30.40;37.13;100796.44;840263;23;1313;-84
2023/05/21 16:28:15;;;;;;;12.13;10.93;;;;;;;30.34;36.90;100786.88;844382;23;1239;-83
2023/05/21 16:28:36;;;;;;;12.48;11.18;;;;;;;30.31;36.77;100787.06;841318;23;984;-83
2023/05/21 16:28:57;;;;;;;12.25;11.05;;;;;;;30.26;37.27;100789.13;841814;23;1068;-83
2023/05/21 16:29:18;;;;;;;11.63;10.43;;;;;;;30.24;36.89;100800.84;836145;23;1202;-83
2023/05/21 16:29:38;;;;;;;11.43;10.23;;;;;;;30.27;37.03;100790.84;837640;23;899;-82
2023/05/21 16:29:59;;;;;;;11.80;10.23;;;;;;;30.26;37.01;100794.50;841848;23;1008;-83
2023/05/21 16:30:19;;;;;;;12.67;10.70;;;;;;;30.28;36.93;100796.16;839312;23;1425;-83
2023/05/21 16:30:40;;;;;;;12.10;10.35;;;;;;;30.33;36.69;100796.78;836215;23;1076;-81
2023/05/21 16:31:01;;;;;;;11.77;10.50;;;;;;;30.34;36.78;100790.44;839426;23;1251;-84
2023/05/21 16:31:22;;;;;;;11.75;10.52;;;;;;;30.27;36.80;100791.75;841620;23;1024;-83
2023/05/21 16:31:43;;;;;;;12.00;10.80;;;;;;;30.24;36.61;100775.75;841392;23;780;-82
2023/05/21 16:32:04;;;;;;;12.00;10.48;;;;;;;30.26;36.59;100791.81;844067;23;1226;-83
2023/05/21 16:32:27;;;;;;;12.43;10.70;;;;;;;30.33;36.87;100790.53;844076;23;1517;-83
2023/05/21 16:32:47;;;;;;;12.23;10.93;;;;;;;30.28;36.77;100782.72;839570;23;1250;-81
2023/05/21 16:33:08;;;;;;;12.48;11.20;;;;;;;30.31;36.67;100785.22;840199;23;1062;-82
2023/05/21 16:33:29;;;;;;;12.40;11.20;;;;;;;30.38;36.73;100786.63;837613;23;1062;-82
2023/05/21 16:33:49;;;;;;;12.32;11.13;;;;;;;30.37;36.73;100792.97;841514;23;1036;-83
2023/05/21 16:34:10;;;;;;;12.30;11.10;;;;;;;30.33;36.31;100780.66;844265;23;1351;-83
2023/05/21 16:34:33;;;;;;;12.32;11.13;;;;;;;30.34;36.32;100785.06;841395;23;953;-83
2023/05/21 16:34:53;;;;;;;12.75;11.45;;;;;;;30.29;36.40;100784.44;839575;23;1197;-83
2023/05/21 16:35:26;;;;;;;12.40;11.10;;;;;;;30.28;36.28;100787.22;839858;23;1337;-82
2023/05/21 16:35:47;;;;;;;12.27;11.00;;;;;;;30.27;36.28;100780.97;837419;23;1053;-83
2023/05/21 16:36:07;;;;;;;11.85;10.70;;;;;;;30.38;35.83;100783.94;836266;23;1063;-83
2023/05/21 16:36:28;;;;;;;12.18;10.85;;;;;;;30.34;35.80;100786.88;844057;23;1598;-83
2023/05/21 16:36:50;;;;;;;12.75;10.95;;;;;;;30.28;35.96;100780.03;838689;23;1190;-83
2023/05/21 16:37:11;;;;;;;12.32;10.95;;;;;;;30.25;35.82;100777.50;840068;23;1418;-83
2023/05/21 16:37:33;;;;;;;12.50;11.20;;;;;;;30.22;35.82;100781.25;841341;23;1077;-82
2023/05/21 16:37:53;;;;;;;12.32;11.02;;;;;;;30.18;35.75;100781.50;841306;23;989;-82
2023/05/21 16:38:24;;;;;;;12.50;11.20;;;;;;;30.09;36.44;100778.34;836246;23;937;-83
2023/05/21 16:38:45;;;;;;;12.45;10.65;;;;;;;30.06;36.24;100781.19;837357;23;1055;-83
2023/05/21 16:39:06;;;;;;;13.63;11.40;;;;;;;30.05;36.26;100776.78;838754;23;1205;-83
2023/05/21 16:39:26;;;;;;;12.73;11.33;;;;;;;30.06;35.99;100781.19;835836;23;1149;-83
2023/05/21 16:39:47;;;;;;;12.90;11.45;;;;;;;30.09;36.39;100788.25;835955;23;1077;-85
2023/05/21 16:40:08;;;;;;;13.67;11.50;;;;;;;30.10;36.03;100785.47;839882;23;1181;-83
2023/05/21 16:40:30;;;;;;;14.07;11.88;;;;;;;30.09;35.85;100781.03;841231;23;1002;-83
2023/05/21 16:40:50;;;;;;;13.95;12.20;;;;;;;30.08;36.08;100775.75;835694;23;1074;-84